FIN7WG EFHK-EGLL
Flight info
| Callsign | FIN7WG |
|---|---|
| Flight time | 2h 17m |
| Altitude | 40000 |
| Route | NUNTO Y367 OLPED DCT OBEVI DCT NISIX DCT DOROR DCT LONAM DCT BINBO DCT AKOKO N866 BUKUT P7 BARMI |
| Aircraft | A359/H-SDE2E3GHIJ3J4J5LM1ORWXY/LB1D1 |
Departure
| Time | 2026-04-22 13:13 |
|---|---|
| Airport | Helsinki Vantaa Airport (EFHK) |
Arrival
| Time | 2026-04-22 15:30 |
|---|---|
| Airport | London Heathrow Airport (EGLL) |
| Time | Latitude | Longitude | Altitude | Speed | Heading |
|---|---|---|---|---|---|
| 2026-04-22 12:36 | 60.31512 | 24.95712 | 173 ft | 0 kts | 137° |
| 2026-04-22 12:58 | 60.31514 | 24.95709 | 173 ft | 2 kts | 137° |
| 2026-04-22 12:58 | 60.31525 | 24.95686 | 173 ft | 2 kts | 133° |
| 2026-04-22 12:58 | 60.31533 | 24.95669 | 173 ft | 2 kts | 129° |
| 2026-04-22 12:59 | 60.31542 | 24.95643 | 173 ft | 2 kts | 120° |
| 2026-04-22 12:59 | 60.31549 | 24.95613 | 173 ft | 2 kts | 103° |
| 2026-04-22 12:59 | 60.31549 | 24.95580 | 173 ft | 2 kts | 71° |
| 2026-04-22 12:59 | 60.31542 | 24.95553 | 173 ft | 1 kts | 48° |
| 2026-04-22 13:00 | 60.31541 | 24.95549 | 173 ft | 0 kts | 47° |
| 2026-04-22 13:04 | 60.31548 | 24.95565 | 173 ft | 4 kts | 47° |
| 2026-04-22 13:04 | 60.31579 | 24.95632 | 173 ft | 9 kts | 44° |
| 2026-04-22 13:04 | 60.31637 | 24.95719 | 173 ft | 12 kts | 38° |
| 2026-04-22 13:05 | 60.31705 | 24.95849 | 173 ft | 15 kts | 50° |
| 2026-04-22 13:05 | 60.31776 | 24.96009 | 173 ft | 16 kts | 48° |
| 2026-04-22 13:05 | 60.31865 | 24.96123 | 173 ft | 15 kts | 351° |
| 2026-04-22 13:05 | 60.31945 | 24.95997 | 176 ft | 14 kts | 317° |
| 2026-04-22 13:06 | 60.32011 | 24.95875 | 179 ft | 13 kts | 317° |
| 2026-04-22 13:06 | 60.32086 | 24.95736 | 180 ft | 18 kts | 318° |
| 2026-04-22 13:06 | 60.32181 | 24.95561 | 180 ft | 18 kts | 317° |
| 2026-04-22 13:06 | 60.32247 | 24.95439 | 181 ft | 12 kts | 317° |
| 2026-04-22 13:07 | 60.32311 | 24.95322 | 182 ft | 12 kts | 319° |
| 2026-04-22 13:07 | 60.32390 | 24.95244 | 185 ft | 13 kts | 336° |
| 2026-04-22 13:07 | 60.32477 | 24.95181 | 202 ft | 14 kts | 340° |
| 2026-04-22 13:07 | 60.32572 | 24.95117 | 197 ft | 15 kts | 343° |
| 2026-04-22 13:08 | 60.32680 | 24.95050 | 202 ft | 17 kts | 342° |
| 2026-04-22 13:08 | 60.32805 | 24.94970 | 182 ft | 19 kts | 342° |
| 2026-04-22 13:08 | 60.32928 | 24.94847 | 183 ft | 20 kts | 320° |
| 2026-04-22 13:08 | 60.33024 | 24.94670 | 201 ft | 17 kts | 317° |
| 2026-04-22 13:09 | 60.33099 | 24.94527 | 209 ft | 13 kts | 316° |
| 2026-04-22 13:09 | 60.33116 | 24.94386 | 201 ft | 10 kts | 239° |
| 2026-04-22 13:09 | 60.33092 | 24.94338 | 204 ft | 0 kts | 227° |
| 2026-04-22 13:12 | 60.33091 | 24.94336 | 204 ft | 1 kts | 227° |
| 2026-04-22 13:12 | 60.33070 | 24.94290 | 207 ft | 9 kts | 227° |
| 2026-04-22 13:12 | 60.32957 | 24.94048 | 206 ft | 55 kts | 226° |
| 2026-04-22 13:12 | 60.32520 | 24.93094 | 183 ft | 127 kts | 226° |
| 2026-04-22 13:13 | 60.31791 | 24.91572 | 490 ft | 159 kts | 232° |
| 2026-04-22 13:13 | 60.31037 | 24.89970 | 1306 ft | 159 kts | 236° |
| 2026-04-22 13:13 | 60.30564 | 24.87827 | 1704 ft | 181 kts | 266° |
| 2026-04-22 13:13 | 60.30632 | 24.85145 | 2051 ft | 201 kts | 278° |
| 2026-04-22 13:14 | 60.30654 | 24.82144 | 2391 ft | 228 kts | 269° |
| 2026-04-22 13:14 | 60.30490 | 24.78862 | 3051 ft | 239 kts | 266° |
| 2026-04-22 13:14 | 60.30009 | 24.75599 | 3765 ft | 252 kts | 255° |
| 2026-04-22 13:14 | 60.29330 | 24.72283 | 4414 ft | 262 kts | 254° |
| 2026-04-22 13:15 | 60.28601 | 24.68824 | 5120 ft | 269 kts | 255° |
| 2026-04-22 13:15 | 60.27877 | 24.65356 | 5944 ft | 269 kts | 255° |
| 2026-04-22 13:15 | 60.27161 | 24.61889 | 6727 ft | 270 kts | 255° |
| 2026-04-22 13:15 | 60.26433 | 24.58340 | 7439 ft | 274 kts | 255° |
| 2026-04-22 13:16 | 60.25702 | 24.54779 | 8159 ft | 278 kts | 255° |
| 2026-04-22 13:16 | 60.24966 | 24.51196 | 8888 ft | 281 kts | 255° |
| 2026-04-22 13:16 | 60.24159 | 24.47556 | 9631 ft | 288 kts | 250° |
| 2026-04-22 13:16 | 60.23205 | 24.43897 | 10151 ft | 299 kts | 249° |
| 2026-04-22 13:17 | 60.22196 | 24.40139 | 10451 ft | 316 kts | 249° |
| 2026-04-22 13:17 | 60.21116 | 24.36132 | 10741 ft | 332 kts | 248° |
| 2026-04-22 13:17 | 60.20001 | 24.32012 | 11189 ft | 341 kts | 248° |
| 2026-04-22 13:17 | 60.18852 | 24.27784 | 11773 ft | 346 kts | 249° |
| 2026-04-22 13:18 | 60.17699 | 24.23539 | 12314 ft | 351 kts | 249° |
| 2026-04-22 13:18 | 60.16529 | 24.19234 | 12890 ft | 355 kts | 249° |
| 2026-04-22 13:18 | 60.15335 | 24.14847 | 13458 ft | 359 kts | 249° |
| 2026-04-22 13:18 | 60.14121 | 24.10388 | 13989 ft | 363 kts | 249° |
| 2026-04-22 13:19 | 60.12911 | 24.05949 | 14522 ft | 366 kts | 249° |
| 2026-04-22 13:19 | 60.11689 | 24.01482 | 15050 ft | 368 kts | 249° |
| 2026-04-22 13:19 | 60.10448 | 23.96948 | 15592 ft | 371 kts | 249° |
| 2026-04-22 13:19 | 60.09203 | 23.92410 | 16114 ft | 374 kts | 249° |
| 2026-04-22 13:20 | 60.08018 | 23.87762 | 16669 ft | 373 kts | 253° |
| 2026-04-22 13:20 | 60.06969 | 23.83043 | 17202 ft | 373 kts | 255° |
| 2026-04-22 13:20 | 60.05989 | 23.78265 | 17730 ft | 375 kts | 256° |
| 2026-04-22 13:20 | 60.05019 | 23.73374 | 18242 ft | 377 kts | 256° |
| 2026-04-22 13:21 | 60.04060 | 23.68514 | 18664 ft | 380 kts | 256° |
| 2026-04-22 13:21 | 60.03066 | 23.63533 | 19084 ft | 384 kts | 256° |
| 2026-04-22 13:21 | 60.02064 | 23.58586 | 19493 ft | 388 kts | 256° |
| 2026-04-22 13:21 | 60.01033 | 23.53551 | 19904 ft | 391 kts | 256° |
| 2026-04-22 13:22 | 59.99998 | 23.48548 | 20324 ft | 394 kts | 255° |
| 2026-04-22 13:22 | 59.98940 | 23.43456 | 20745 ft | 398 kts | 255° |
| 2026-04-22 13:22 | 59.97882 | 23.38382 | 21155 ft | 401 kts | 255° |
| 2026-04-22 13:22 | 59.96797 | 23.33187 | 21558 ft | 404 kts | 255° |
| 2026-04-22 13:23 | 59.95717 | 23.28026 | 21968 ft | 408 kts | 255° |
| 2026-04-22 13:23 | 59.94619 | 23.22794 | 22359 ft | 411 kts | 255° |
| 2026-04-22 13:23 | 59.93504 | 23.17494 | 22737 ft | 414 kts | 255° |
| 2026-04-22 13:23 | 59.92395 | 23.12229 | 23115 ft | 417 kts | 255° |
| 2026-04-22 13:24 | 59.91259 | 23.06855 | 23492 ft | 420 kts | 255° |
| 2026-04-22 13:24 | 59.90126 | 23.01507 | 23813 ft | 423 kts | 255° |
| 2026-04-22 13:24 | 59.88971 | 22.96058 | 24144 ft | 425 kts | 255° |
| 2026-04-22 13:24 | 59.87824 | 22.90658 | 24474 ft | 428 kts | 255° |
| 2026-04-22 13:25 | 59.86650 | 22.85157 | 24804 ft | 430 kts | 255° |
| 2026-04-22 13:25 | 59.85479 | 22.79694 | 25136 ft | 433 kts | 255° |
| 2026-04-22 13:25 | 59.84289 | 22.74151 | 25478 ft | 435 kts | 255° |
| 2026-04-22 13:25 | 59.83104 | 22.68647 | 25807 ft | 438 kts | 255° |
| 2026-04-22 13:26 | 59.81895 | 22.63042 | 26168 ft | 440 kts | 255° |
| 2026-04-22 13:26 | 59.80691 | 22.57476 | 26530 ft | 443 kts | 255° |
| 2026-04-22 13:26 | 59.79461 | 22.51798 | 26897 ft | 446 kts | 254° |
| 2026-04-22 13:26 | 59.78239 | 22.46175 | 27274 ft | 449 kts | 254° |
| 2026-04-22 13:27 | 59.76991 | 22.40449 | 27689 ft | 451 kts | 254° |
| 2026-04-22 13:27 | 59.75752 | 22.34781 | 28081 ft | 454 kts | 254° |
| 2026-04-22 13:27 | 59.74481 | 22.28981 | 28494 ft | 457 kts | 254° |
| 2026-04-22 13:27 | 59.73217 | 22.23224 | 28909 ft | 461 kts | 254° |
| 2026-04-22 13:28 | 59.71923 | 22.17352 | 29317 ft | 464 kts | 254° |
| 2026-04-22 13:28 | 59.70631 | 22.11492 | 29742 ft | 467 kts | 254° |
| 2026-04-22 13:28 | 59.69326 | 22.05561 | 30151 ft | 470 kts | 254° |
| 2026-04-22 13:28 | 59.68011 | 21.99580 | 30480 ft | 474 kts | 254° |
| 2026-04-22 13:29 | 59.66694 | 21.93607 | 30794 ft | 478 kts | 253° |
| 2026-04-22 13:29 | 59.65369 | 21.87612 | 31126 ft | 482 kts | 253° |
| 2026-04-22 13:29 | 59.64013 | 21.81503 | 31465 ft | 486 kts | 253° |
| 2026-04-22 13:29 | 59.62639 | 21.75338 | 31790 ft | 490 kts | 253° |
| 2026-04-22 13:30 | 59.61272 | 21.69221 | 32105 ft | 494 kts | 253° |
| 2026-04-22 13:30 | 59.59869 | 21.62963 | 32439 ft | 497 kts | 253° |
| 2026-04-22 13:30 | 59.58469 | 21.56736 | 32745 ft | 501 kts | 253° |
| 2026-04-22 13:30 | 59.57042 | 21.50394 | 33050 ft | 505 kts | 252° |
| 2026-04-22 13:31 | 59.55610 | 21.44111 | 33329 ft | 509 kts | 252° |
| 2026-04-22 13:31 | 59.54125 | 21.37660 | 33631 ft | 513 kts | 252° |
| 2026-04-22 13:31 | 59.52657 | 21.31315 | 33924 ft | 516 kts | 252° |
| 2026-04-22 13:31 | 59.51153 | 21.24826 | 34203 ft | 519 kts | 252° |
| 2026-04-22 13:32 | 59.49649 | 21.18352 | 34474 ft | 521 kts | 251° |
| 2026-04-22 13:32 | 59.48151 | 21.11921 | 34837 ft | 521 kts | 251° |
| 2026-04-22 13:32 | 59.46634 | 21.05425 | 35255 ft | 520 kts | 251° |
| 2026-04-22 13:32 | 59.45134 | 20.99013 | 35656 ft | 520 kts | 251° |
| 2026-04-22 13:33 | 59.43608 | 20.92508 | 36039 ft | 519 kts | 251° |
| 2026-04-22 13:33 | 59.42105 | 20.86124 | 36406 ft | 520 kts | 251° |
| 2026-04-22 13:33 | 59.40573 | 20.79642 | 36775 ft | 520 kts | 251° |
| 2026-04-22 13:33 | 59.39056 | 20.73245 | 37138 ft | 520 kts | 251° |
| 2026-04-22 13:34 | 59.37521 | 20.66789 | 37507 ft | 520 kts | 250° |
| 2026-04-22 13:34 | 59.35999 | 20.60406 | 37873 ft | 519 kts | 250° |
| 2026-04-22 13:34 | 59.34460 | 20.53968 | 38221 ft | 519 kts | 250° |
| 2026-04-22 13:34 | 59.32931 | 20.47596 | 38549 ft | 519 kts | 250° |
| 2026-04-22 13:35 | 59.31402 | 20.41233 | 38835 ft | 519 kts | 250° |
| 2026-04-22 13:35 | 59.29871 | 20.34874 | 39132 ft | 518 kts | 250° |
| 2026-04-22 13:35 | 59.28320 | 20.28463 | 39427 ft | 517 kts | 249° |
| 2026-04-22 13:35 | 59.26791 | 20.22165 | 39715 ft | 516 kts | 249° |
| 2026-04-22 13:36 | 59.25243 | 20.15812 | 39983 ft | 515 kts | 249° |
| 2026-04-22 13:36 | 59.23694 | 20.09468 | 40244 ft | 515 kts | 249° |
| 2026-04-22 13:36 | 59.22161 | 20.03209 | 40494 ft | 514 kts | 249° |
| 2026-04-22 13:36 | 59.20625 | 19.96950 | 40739 ft | 514 kts | 248° |
| 2026-04-22 13:37 | 59.19071 | 19.90638 | 40978 ft | 514 kts | 248° |
| 2026-04-22 13:37 | 59.15948 | 19.77991 | 41036 ft | 522 kts | 248° |
| 2026-04-22 13:38 | 59.12772 | 19.65211 | 41043 ft | 526 kts | 248° |
| 2026-04-22 13:38 | 59.07964 | 19.46027 | 41047 ft | 526 kts | 247° |
| 2026-04-22 13:39 | 59.04756 | 19.33312 | 41048 ft | 526 kts | 247° |
| 2026-04-22 13:39 | 59.01524 | 19.20573 | 41059 ft | 526 kts | 247° |
| 2026-04-22 13:40 | 58.98290 | 19.07898 | 41054 ft | 526 kts | 246° |
| 2026-04-22 13:40 | 58.95038 | 18.95225 | 41061 ft | 526 kts | 246° |
| 2026-04-22 13:41 | 58.91775 | 18.82584 | 41057 ft | 526 kts | 246° |
| 2026-04-22 13:41 | 58.88488 | 18.69918 | 41057 ft | 526 kts | 246° |
| 2026-04-22 13:42 | 58.85192 | 18.57294 | 41058 ft | 526 kts | 246° |
| 2026-04-22 13:42 | 58.81907 | 18.44778 | 41057 ft | 526 kts | 245° |
| 2026-04-22 13:43 | 58.78588 | 18.32205 | 41065 ft | 526 kts | 245° |
| 2026-04-22 13:43 | 58.75261 | 18.19669 | 41062 ft | 526 kts | 245° |
| 2026-04-22 13:44 | 58.71914 | 18.07132 | 41064 ft | 526 kts | 245° |
| 2026-04-22 13:44 | 58.68558 | 17.94627 | 41068 ft | 526 kts | 245° |
| 2026-04-22 13:45 | 58.65190 | 17.82150 | 41068 ft | 526 kts | 244° |
| 2026-04-22 13:45 | 58.61814 | 17.69708 | 41071 ft | 526 kts | 244° |
| 2026-04-22 13:46 | 58.58423 | 17.57281 | 41078 ft | 526 kts | 244° |
| 2026-04-22 13:46 | 58.55010 | 17.44844 | 41076 ft | 526 kts | 244° |
| 2026-04-22 13:47 | 58.51591 | 17.32451 | 41085 ft | 526 kts | 244° |
| 2026-04-22 13:47 | 58.48164 | 17.20096 | 41088 ft | 526 kts | 243° |
| 2026-04-22 13:48 | 58.44723 | 17.07758 | 41091 ft | 527 kts | 243° |
| 2026-04-22 13:48 | 58.41268 | 16.95435 | 41089 ft | 527 kts | 243° |
| 2026-04-22 13:49 | 58.37825 | 16.83221 | 41098 ft | 527 kts | 243° |
| 2026-04-22 13:49 | 58.34333 | 16.70898 | 41102 ft | 527 kts | 243° |
| 2026-04-22 13:50 | 58.30851 | 16.58680 | 41104 ft | 527 kts | 243° |
| 2026-04-22 13:50 | 58.27349 | 16.46454 | 41111 ft | 527 kts | 242° |
| 2026-04-22 13:51 | 58.23837 | 16.34258 | 41114 ft | 527 kts | 242° |
| 2026-04-22 13:51 | 58.20293 | 16.22014 | 41123 ft | 527 kts | 242° |
| 2026-04-22 13:52 | 58.16777 | 16.09934 | 41131 ft | 527 kts | 242° |
| 2026-04-22 13:52 | 58.13231 | 15.97813 | 41138 ft | 527 kts | 242° |
| 2026-04-22 13:53 | 58.09645 | 15.85619 | 41140 ft | 527 kts | 242° |
| 2026-04-22 13:53 | 58.06074 | 15.73538 | 41142 ft | 527 kts | 241° |
| 2026-04-22 13:54 | 58.02490 | 15.61479 | 41145 ft | 527 kts | 241° |
| 2026-04-22 13:54 | 57.98910 | 15.49494 | 41153 ft | 527 kts | 241° |
| 2026-04-22 13:55 | 57.95306 | 15.37490 | 41158 ft | 527 kts | 241° |
| 2026-04-22 13:55 | 57.91682 | 15.25483 | 41162 ft | 527 kts | 240° |
| 2026-04-22 13:56 | 57.88055 | 15.13528 | 41162 ft | 527 kts | 240° |
| 2026-04-22 13:56 | 57.84417 | 15.01593 | 41166 ft | 527 kts | 240° |
| 2026-04-22 13:57 | 57.80761 | 14.89665 | 41175 ft | 527 kts | 240° |
| 2026-04-22 13:57 | 57.77097 | 14.77768 | 41180 ft | 527 kts | 240° |
| 2026-04-22 13:58 | 57.73437 | 14.65945 | 41182 ft | 526 kts | 240° |
| 2026-04-22 13:58 | 57.69756 | 14.54116 | 41183 ft | 526 kts | 239° |
| 2026-04-22 13:59 | 57.66058 | 14.42290 | 41185 ft | 525 kts | 239° |
| 2026-04-22 13:59 | 57.62368 | 14.30549 | 41185 ft | 525 kts | 239° |
| 2026-04-22 14:00 | 57.58675 | 14.18858 | 41186 ft | 525 kts | 239° |
| 2026-04-22 14:00 | 57.54967 | 14.07174 | 41184 ft | 524 kts | 239° |
| 2026-04-22 14:01 | 57.51242 | 13.95497 | 41190 ft | 524 kts | 239° |
| 2026-04-22 14:01 | 57.47511 | 13.83860 | 41194 ft | 524 kts | 239° |
| 2026-04-22 14:02 | 57.43767 | 13.72239 | 41196 ft | 523 kts | 239° |
| 2026-04-22 14:02 | 57.40029 | 13.60689 | 41202 ft | 523 kts | 238° |
| 2026-04-22 14:03 | 57.36270 | 13.49135 | 41208 ft | 523 kts | 238° |
| 2026-04-22 14:03 | 57.32502 | 13.37609 | 41208 ft | 523 kts | 238° |
| 2026-04-22 14:04 | 57.28726 | 13.26111 | 41210 ft | 523 kts | 238° |
| 2026-04-22 14:04 | 57.24947 | 13.14660 | 41216 ft | 522 kts | 238° |
| 2026-04-22 14:05 | 57.21163 | 13.03252 | 41224 ft | 522 kts | 238° |
| 2026-04-22 14:06 | 57.15456 | 12.86144 | 41234 ft | 522 kts | 238° |
| 2026-04-22 14:06 | 57.11652 | 12.74808 | 41240 ft | 522 kts | 237° |
| 2026-04-22 14:07 | 57.07830 | 12.63477 | 41249 ft | 522 kts | 237° |
| 2026-04-22 14:07 | 57.03994 | 12.52158 | 41258 ft | 522 kts | 237° |
| 2026-04-22 14:08 | 57.00151 | 12.40867 | 41262 ft | 522 kts | 237° |
| 2026-04-22 14:08 | 56.96954 | 12.31516 | 41269 ft | 522 kts | 237° |
| 2026-04-22 14:09 | 56.93093 | 12.20271 | 41276 ft | 521 kts | 237° |
| 2026-04-22 14:09 | 56.88587 | 12.07213 | 41274 ft | 521 kts | 237° |
| 2026-04-22 14:10 | 56.84706 | 11.96024 | 41276 ft | 521 kts | 237° |
| 2026-04-22 14:10 | 56.80824 | 11.84882 | 41278 ft | 521 kts | 237° |
| 2026-04-22 14:11 | 56.77564 | 11.75566 | 41283 ft | 521 kts | 236° |
| 2026-04-22 14:11 | 56.73660 | 11.64456 | 41285 ft | 521 kts | 236° |
| 2026-04-22 14:12 | 56.69744 | 11.53364 | 41287 ft | 520 kts | 236° |
| 2026-04-22 14:12 | 56.65820 | 11.42299 | 41289 ft | 520 kts | 236° |
| 2026-04-22 14:13 | 56.61914 | 11.31337 | 41290 ft | 520 kts | 236° |
| 2026-04-22 14:13 | 56.57960 | 11.20289 | 41289 ft | 520 kts | 236° |
| 2026-04-22 14:14 | 56.54013 | 11.09312 | 41290 ft | 519 kts | 236° |
| 2026-04-22 14:14 | 56.50087 | 10.98442 | 41298 ft | 519 kts | 236° |
| 2026-04-22 14:15 | 56.46124 | 10.87520 | 41308 ft | 519 kts | 236° |
| 2026-04-22 14:15 | 56.42156 | 10.76632 | 41315 ft | 519 kts | 236° |
| 2026-04-22 14:16 | 56.38181 | 10.65773 | 41321 ft | 519 kts | 235° |
| 2026-04-22 14:16 | 56.34194 | 10.54932 | 41320 ft | 518 kts | 235° |
| 2026-04-22 14:17 | 56.30211 | 10.44146 | 41320 ft | 518 kts | 235° |
| 2026-04-22 14:17 | 56.26210 | 10.33361 | 41312 ft | 518 kts | 235° |
| 2026-04-22 14:18 | 56.22197 | 10.22595 | 41308 ft | 518 kts | 235° |
| 2026-04-22 14:18 | 56.18183 | 10.11869 | 41304 ft | 518 kts | 235° |
| 2026-04-22 14:19 | 56.14156 | 10.01158 | 41304 ft | 518 kts | 235° |
| 2026-04-22 14:19 | 56.10137 | 9.90515 | 41308 ft | 517 kts | 235° |
| 2026-04-22 14:20 | 56.04079 | 9.74558 | 41315 ft | 517 kts | 234° |
| 2026-04-22 14:20 | 56.00024 | 9.63935 | 41318 ft | 517 kts | 234° |
| 2026-04-22 14:21 | 55.93922 | 9.48038 | 41330 ft | 517 kts | 234° |
| 2026-04-22 14:22 | 55.87818 | 9.32236 | 41345 ft | 517 kts | 234° |
| 2026-04-22 14:23 | 55.81661 | 9.16401 | 41346 ft | 517 kts | 234° |
| 2026-04-22 14:23 | 55.77564 | 9.05921 | 41348 ft | 517 kts | 234° |
| 2026-04-22 14:24 | 55.73459 | 8.95464 | 41346 ft | 517 kts | 234° |
| 2026-04-22 14:24 | 55.69346 | 8.85031 | 41354 ft | 517 kts | 234° |
| 2026-04-22 14:25 | 55.65229 | 8.74634 | 41394 ft | 517 kts | 234° |
| 2026-04-22 14:25 | 55.61093 | 8.64232 | 41399 ft | 517 kts | 234° |
| 2026-04-22 14:26 | 55.56925 | 8.53792 | 41401 ft | 517 kts | 234° |
| 2026-04-22 14:26 | 55.52806 | 8.43522 | 41400 ft | 516 kts | 234° |
| 2026-04-22 14:27 | 55.48646 | 8.33192 | 41400 ft | 516 kts | 233° |
| 2026-04-22 14:27 | 55.44481 | 8.22891 | 41400 ft | 516 kts | 233° |
| 2026-04-22 14:28 | 55.40306 | 8.12610 | 41401 ft | 515 kts | 233° |
| 2026-04-22 14:28 | 55.36122 | 8.02348 | 41404 ft | 515 kts | 233° |
| 2026-04-22 14:29 | 55.31951 | 7.92163 | 41407 ft | 515 kts | 233° |
| 2026-04-22 14:29 | 55.27769 | 7.81992 | 41408 ft | 514 kts | 233° |
| 2026-04-22 14:30 | 55.23578 | 7.71840 | 41414 ft | 514 kts | 233° |
| 2026-04-22 14:30 | 55.19386 | 7.61729 | 41417 ft | 513 kts | 233° |
| 2026-04-22 14:31 | 55.15195 | 7.51661 | 41420 ft | 513 kts | 233° |
| 2026-04-22 14:31 | 55.10988 | 7.41594 | 41423 ft | 512 kts | 233° |
| 2026-04-22 14:32 | 55.06787 | 7.31583 | 41426 ft | 512 kts | 233° |
| 2026-04-22 14:32 | 55.02550 | 7.21529 | 41430 ft | 511 kts | 233° |
| 2026-04-22 14:33 | 54.98609 | 7.11337 | 41431 ft | 511 kts | 238° |
| 2026-04-22 14:33 | 54.96768 | 7.06032 | 41712 ft | 508 kts | 239° |
| 2026-04-22 14:33 | 54.94960 | 7.00739 | 41983 ft | 507 kts | 239° |
| 2026-04-22 14:33 | 54.93180 | 6.95495 | 42203 ft | 506 kts | 239° |
| 2026-04-22 14:34 | 54.91383 | 6.90199 | 42439 ft | 506 kts | 239° |
| 2026-04-22 14:34 | 54.89610 | 6.84988 | 42661 ft | 505 kts | 239° |
| 2026-04-22 14:34 | 54.87812 | 6.79726 | 42883 ft | 505 kts | 239° |
| 2026-04-22 14:34 | 54.86032 | 6.74534 | 43095 ft | 504 kts | 239° |
| 2026-04-22 14:35 | 54.84234 | 6.69306 | 43301 ft | 504 kts | 239° |
| 2026-04-22 14:35 | 54.82441 | 6.64108 | 43444 ft | 505 kts | 239° |
| 2026-04-22 14:35 | 54.80626 | 6.58859 | 43448 ft | 505 kts | 239° |
| 2026-04-22 14:36 | 54.77013 | 6.48441 | 43447 ft | 506 kts | 239° |
| 2026-04-22 14:36 | 54.73362 | 6.37960 | 43453 ft | 506 kts | 239° |
| 2026-04-22 14:37 | 54.69735 | 6.27589 | 43453 ft | 506 kts | 239° |
| 2026-04-22 14:37 | 54.66082 | 6.17192 | 43454 ft | 506 kts | 239° |
| 2026-04-22 14:38 | 54.62444 | 6.06876 | 43456 ft | 505 kts | 239° |
| 2026-04-22 14:38 | 54.58776 | 5.96524 | 43458 ft | 505 kts | 239° |
| 2026-04-22 14:39 | 54.55108 | 5.86210 | 43462 ft | 505 kts | 239° |
| 2026-04-22 14:39 | 54.51438 | 5.75936 | 43462 ft | 505 kts | 238° |
| 2026-04-22 14:40 | 54.45910 | 5.60543 | 43465 ft | 504 kts | 238° |
| 2026-04-22 14:40 | 54.42213 | 5.50301 | 43462 ft | 504 kts | 238° |
| 2026-04-22 14:41 | 54.38511 | 5.40086 | 43461 ft | 504 kts | 238° |
| 2026-04-22 14:41 | 54.34805 | 5.29903 | 43467 ft | 504 kts | 238° |
| 2026-04-22 14:42 | 54.31085 | 5.19724 | 43470 ft | 504 kts | 238° |
| 2026-04-22 14:42 | 54.27360 | 5.09574 | 43468 ft | 504 kts | 238° |
| 2026-04-22 14:43 | 54.23624 | 4.99434 | 43463 ft | 504 kts | 238° |
| 2026-04-22 14:43 | 54.19877 | 4.89305 | 43464 ft | 503 kts | 238° |
| 2026-04-22 14:44 | 54.16149 | 4.79270 | 43472 ft | 503 kts | 238° |
| 2026-04-22 14:44 | 54.12383 | 4.69170 | 43468 ft | 503 kts | 238° |
| 2026-04-22 14:45 | 54.08622 | 4.59127 | 43466 ft | 503 kts | 238° |
| 2026-04-22 14:45 | 54.04847 | 4.49089 | 43467 ft | 503 kts | 238° |
| 2026-04-22 14:46 | 54.01086 | 4.39127 | 43468 ft | 503 kts | 237° |
| 2026-04-22 14:46 | 53.97284 | 4.29094 | 43467 ft | 503 kts | 237° |
| 2026-04-22 14:47 | 53.93494 | 4.19135 | 43473 ft | 503 kts | 237° |
| 2026-04-22 14:47 | 53.89699 | 4.09204 | 43467 ft | 503 kts | 237° |
| 2026-04-22 14:48 | 53.85880 | 3.99280 | 43464 ft | 503 kts | 236° |
| 2026-04-22 14:48 | 53.81211 | 3.90489 | 43472 ft | 503 kts | 221° |
| 2026-04-22 14:49 | 53.75852 | 3.82818 | 43467 ft | 503 kts | 219° |
| 2026-04-22 14:49 | 53.70407 | 3.75385 | 43464 ft | 503 kts | 219° |
| 2026-04-22 14:50 | 53.64975 | 3.67982 | 43466 ft | 503 kts | 219° |
| 2026-04-22 14:50 | 53.59540 | 3.60545 | 43468 ft | 503 kts | 219° |
| 2026-04-22 14:51 | 53.54132 | 3.53146 | 43462 ft | 503 kts | 219° |
| 2026-04-22 14:51 | 53.48693 | 3.45726 | 43457 ft | 504 kts | 219° |
| 2026-04-22 14:52 | 53.43257 | 3.38338 | 43456 ft | 504 kts | 219° |
| 2026-04-22 14:52 | 53.37422 | 3.31841 | 43451 ft | 503 kts | 208° |
| 2026-04-22 14:53 | 53.31217 | 3.26394 | 43453 ft | 503 kts | 206° |
| 2026-04-22 14:53 | 53.24977 | 3.21149 | 43446 ft | 504 kts | 206° |
| 2026-04-22 14:54 | 53.18729 | 3.15899 | 43443 ft | 504 kts | 206° |
| 2026-04-22 14:54 | 53.12452 | 3.10617 | 43443 ft | 504 kts | 206° |
| 2026-04-22 14:55 | 53.06192 | 3.05345 | 43442 ft | 504 kts | 206° |
| 2026-04-22 14:55 | 53.03092 | 3.02744 | 43189 ft | 503 kts | 206° |
| 2026-04-22 14:55 | 52.99933 | 3.00099 | 42589 ft | 503 kts | 207° |
| 2026-04-22 14:56 | 52.96840 | 2.97513 | 41865 ft | 504 kts | 207° |
| 2026-04-22 14:56 | 52.93696 | 2.94888 | 41142 ft | 506 kts | 207° |
| 2026-04-22 14:56 | 52.90532 | 2.92244 | 40426 ft | 507 kts | 207° |
| 2026-04-22 14:56 | 52.87374 | 2.89614 | 39699 ft | 509 kts | 207° |
| 2026-04-22 14:57 | 52.84214 | 2.86989 | 39013 ft | 510 kts | 207° |
| 2026-04-22 14:57 | 52.81067 | 2.84380 | 38158 ft | 510 kts | 207° |
| 2026-04-22 14:57 | 52.77875 | 2.81738 | 37318 ft | 510 kts | 207° |
| 2026-04-22 14:57 | 52.74735 | 2.79140 | 36494 ft | 509 kts | 207° |
| 2026-04-22 14:58 | 52.71557 | 2.76513 | 35678 ft | 509 kts | 207° |
| 2026-04-22 14:58 | 52.68382 | 2.73896 | 34885 ft | 508 kts | 207° |
| 2026-04-22 14:58 | 52.65239 | 2.71312 | 34156 ft | 505 kts | 207° |
| 2026-04-22 14:58 | 52.62086 | 2.68722 | 33411 ft | 501 kts | 207° |
| 2026-04-22 14:59 | 52.59002 | 2.66191 | 32766 ft | 496 kts | 207° |
| 2026-04-22 14:59 | 52.55944 | 2.63687 | 32157 ft | 492 kts | 207° |
| 2026-04-22 14:59 | 52.52881 | 2.61182 | 31559 ft | 487 kts | 207° |
| 2026-04-22 14:59 | 52.49855 | 2.58710 | 30970 ft | 482 kts | 207° |
| 2026-04-22 15:00 | 52.46898 | 2.56298 | 30292 ft | 476 kts | 207° |
| 2026-04-22 15:00 | 52.43967 | 2.53906 | 30169 ft | 461 kts | 207° |
| 2026-04-22 15:00 | 52.41123 | 2.51596 | 30175 ft | 449 kts | 207° |
| 2026-04-22 15:00 | 52.38361 | 2.49355 | 30176 ft | 448 kts | 207° |
| 2026-04-22 15:01 | 52.32775 | 2.44831 | 30177 ft | 448 kts | 207° |
| 2026-04-22 15:01 | 52.27179 | 2.40310 | 30179 ft | 449 kts | 207° |
| 2026-04-22 15:02 | 52.21596 | 2.35813 | 30171 ft | 449 kts | 207° |
| 2026-04-22 15:02 | 52.15993 | 2.31312 | 30165 ft | 449 kts | 207° |
| 2026-04-22 15:03 | 52.10582 | 2.26373 | 30167 ft | 447 kts | 219° |
| 2026-04-22 15:03 | 52.06280 | 2.19143 | 30161 ft | 445 kts | 231° |
| 2026-04-22 15:04 | 52.02205 | 2.11513 | 30159 ft | 445 kts | 231° |
| 2026-04-22 15:04 | 51.98144 | 2.03980 | 30157 ft | 445 kts | 231° |
| 2026-04-22 15:05 | 51.94067 | 1.96461 | 30136 ft | 444 kts | 231° |
| 2026-04-22 15:05 | 51.92029 | 1.92714 | 29621 ft | 439 kts | 231° |
| 2026-04-22 15:05 | 51.90025 | 1.89034 | 29085 ft | 436 kts | 230° |
| 2026-04-22 15:06 | 51.88687 | 1.86582 | 28762 ft | 433 kts | 230° |
| 2026-04-22 15:06 | 51.86051 | 1.81757 | 28123 ft | 427 kts | 230° |
| 2026-04-22 15:06 | 51.84085 | 1.78164 | 27641 ft | 423 kts | 230° |
| 2026-04-22 15:06 | 51.82148 | 1.74626 | 27163 ft | 420 kts | 230° |
| 2026-04-22 15:07 | 51.80228 | 1.71125 | 26692 ft | 417 kts | 230° |
| 2026-04-22 15:07 | 51.78292 | 1.67602 | 26214 ft | 414 kts | 229° |
| 2026-04-22 15:07 | 51.76437 | 1.64118 | 25735 ft | 411 kts | 233° |
| 2026-04-22 15:07 | 51.75021 | 1.60179 | 25269 ft | 406 kts | 249° |
| 2026-04-22 15:08 | 51.74349 | 1.55713 | 24654 ft | 408 kts | 263° |
| 2026-04-22 15:08 | 51.74053 | 1.51186 | 24023 ft | 409 kts | 265° |
| 2026-04-22 15:08 | 51.73790 | 1.46616 | 23338 ft | 409 kts | 264° |
| 2026-04-22 15:08 | 51.73513 | 1.42034 | 22704 ft | 408 kts | 264° |
| 2026-04-22 15:09 | 51.73229 | 1.37504 | 22097 ft | 406 kts | 264° |
| 2026-04-22 15:09 | 51.72941 | 1.33008 | 21489 ft | 404 kts | 263° |
| 2026-04-22 15:09 | 51.72650 | 1.28526 | 20888 ft | 403 kts | 263° |
| 2026-04-22 15:09 | 51.72353 | 1.24012 | 20279 ft | 402 kts | 263° |
| 2026-04-22 15:10 | 51.72058 | 1.19569 | 19678 ft | 401 kts | 262° |
| 2026-04-22 15:10 | 51.71757 | 1.15072 | 19069 ft | 400 kts | 262° |
| 2026-04-22 15:10 | 51.71460 | 1.10652 | 18441 ft | 400 kts | 262° |
| 2026-04-22 15:10 | 51.71156 | 1.06178 | 17804 ft | 398 kts | 262° |
| 2026-04-22 15:11 | 51.70853 | 1.01753 | 17196 ft | 395 kts | 262° |
| 2026-04-22 15:11 | 51.70555 | 0.97402 | 16613 ft | 392 kts | 262° |
| 2026-04-22 15:11 | 51.70256 | 0.93031 | 16129 ft | 386 kts | 262° |
| 2026-04-22 15:11 | 51.69968 | 0.88829 | 15963 ft | 373 kts | 261° |
| 2026-04-22 15:12 | 51.69679 | 0.84716 | 15754 ft | 371 kts | 261° |
| 2026-04-22 15:12 | 51.69485 | 0.81971 | 15604 ft | 370 kts | 261° |
| 2026-04-22 15:12 | 51.69193 | 0.77833 | 15360 ft | 369 kts | 261° |
| 2026-04-22 15:12 | 51.68901 | 0.73699 | 15135 ft | 368 kts | 261° |
| 2026-04-22 15:13 | 51.68613 | 0.69645 | 14910 ft | 367 kts | 261° |
| 2026-04-22 15:13 | 51.68323 | 0.65530 | 14683 ft | 366 kts | 261° |
| 2026-04-22 15:13 | 51.68035 | 0.61484 | 14454 ft | 365 kts | 261° |
| 2026-04-22 15:13 | 51.67746 | 0.57491 | 14279 ft | 351 kts | 261° |
| 2026-04-22 15:14 | 51.67475 | 0.53725 | 14056 ft | 322 kts | 261° |
| 2026-04-22 15:14 | 51.67217 | 0.50203 | 13862 ft | 321 kts | 261° |
| 2026-04-22 15:14 | 51.66956 | 0.46606 | 13628 ft | 321 kts | 261° |
| 2026-04-22 15:14 | 51.66692 | 0.43021 | 13401 ft | 321 kts | 260° |
| 2026-04-22 15:15 | 51.66427 | 0.39487 | 13202 ft | 320 kts | 261° |
| 2026-04-22 15:15 | 51.66162 | 0.35946 | 12982 ft | 320 kts | 261° |
| 2026-04-22 15:15 | 51.65895 | 0.32386 | 12879 ft | 320 kts | 261° |
| 2026-04-22 15:15 | 51.65632 | 0.28826 | 12605 ft | 317 kts | 260° |
| 2026-04-22 15:16 | 51.65368 | 0.25304 | 12403 ft | 316 kts | 260° |
| 2026-04-22 15:16 | 51.65104 | 0.21802 | 12197 ft | 316 kts | 260° |
| 2026-04-22 15:16 | 51.64837 | 0.18276 | 11999 ft | 314 kts | 260° |
| 2026-04-22 15:16 | 51.64574 | 0.14821 | 11802 ft | 313 kts | 260° |
| 2026-04-22 15:17 | 51.64353 | 0.11309 | 11622 ft | 314 kts | 262° |
| 2026-04-22 15:17 | 51.64178 | 0.07802 | 11420 ft | 313 kts | 263° |
| 2026-04-22 15:17 | 51.64004 | 0.04341 | 11221 ft | 311 kts | 263° |
| 2026-04-22 15:17 | 51.63822 | 0.00846 | 11029 ft | 311 kts | 263° |
| 2026-04-22 15:18 | 51.63643 | -0.02556 | 10838 ft | 310 kts | 262° |
| 2026-04-22 15:18 | 51.63454 | -0.06025 | 10651 ft | 310 kts | 262° |
| 2026-04-22 15:18 | 51.63262 | -0.09494 | 10536 ft | 308 kts | 262° |
| 2026-04-22 15:18 | 51.63072 | -0.12922 | 10356 ft | 308 kts | 262° |
| 2026-04-22 15:19 | 51.62881 | -0.16332 | 10155 ft | 307 kts | 262° |
| 2026-04-22 15:19 | 51.62691 | -0.19719 | 9963 ft | 306 kts | 262° |
| 2026-04-22 15:19 | 51.62497 | -0.23157 | 9775 ft | 305 kts | 262° |
| 2026-04-22 15:19 | 51.62306 | -0.26531 | 9584 ft | 305 kts | 262° |
| 2026-04-22 15:20 | 51.62110 | -0.29944 | 9383 ft | 304 kts | 262° |
| 2026-04-22 15:20 | 51.61917 | -0.33307 | 9062 ft | 303 kts | 262° |
| 2026-04-22 15:20 | 51.61724 | -0.36659 | 8877 ft | 302 kts | 262° |
| 2026-04-22 15:20 | 51.61527 | -0.40061 | 8687 ft | 302 kts | 262° |
| 2026-04-22 15:21 | 51.61333 | -0.43389 | 8501 ft | 301 kts | 262° |
| 2026-04-22 15:21 | 51.61138 | -0.46736 | 8311 ft | 300 kts | 262° |
| 2026-04-22 15:21 | 51.60943 | -0.50074 | 8131 ft | 299 kts | 262° |
| 2026-04-22 15:21 | 51.60745 | -0.53396 | 7936 ft | 299 kts | 261° |
| 2026-04-22 15:22 | 51.60547 | -0.56703 | 7750 ft | 298 kts | 261° |
| 2026-04-22 15:22 | 51.60349 | -0.60031 | 7567 ft | 297 kts | 262° |
| 2026-04-22 15:22 | 51.60151 | -0.63354 | 7380 ft | 297 kts | 261° |
| 2026-04-22 15:22 | 51.59948 | -0.66638 | 7128 ft | 294 kts | 261° |
| 2026-04-22 15:23 | 51.59755 | -0.69831 | 6511 ft | 289 kts | 262° |
| 2026-04-22 15:23 | 51.59364 | -0.72986 | 6088 ft | 277 kts | 244° |
| 2026-04-22 15:23 | 51.58362 | -0.75351 | 5940 ft | 244 kts | 216° |
| 2026-04-22 15:23 | 51.56968 | -0.76715 | 5768 ft | 227 kts | 195° |
| 2026-04-22 15:24 | 51.55478 | -0.77555 | 5449 ft | 227 kts | 191° |
| 2026-04-22 15:24 | 51.53985 | -0.78317 | 5052 ft | 221 kts | 191° |
| 2026-04-22 15:24 | 51.52553 | -0.78923 | 4710 ft | 208 kts | 182° |
| 2026-04-22 15:24 | 51.51155 | -0.78902 | 4285 ft | 195 kts | 162° |
| 2026-04-22 15:25 | 51.49939 | -0.78121 | 4023 ft | 186 kts | 142° |
| 2026-04-22 15:25 | 51.48915 | -0.76932 | 3900 ft | 177 kts | 137° |
| 2026-04-22 15:25 | 51.48049 | -0.75618 | 3777 ft | 167 kts | 123° |
| 2026-04-22 15:25 | 51.47630 | -0.74003 | 3714 ft | 154 kts | 98° |
| 2026-04-22 15:26 | 51.47604 | -0.72269 | 3375 ft | 159 kts | 88° |
| 2026-04-22 15:26 | 51.47652 | -0.70431 | 2968 ft | 170 kts | 88° |
| 2026-04-22 15:26 | 51.47681 | -0.68494 | 2581 ft | 175 kts | 89° |
| 2026-04-22 15:26 | 51.47682 | -0.66592 | 2345 ft | 163 kts | 89° |
| 2026-04-22 15:27 | 51.47690 | -0.64810 | 2135 ft | 159 kts | 90° |
| 2026-04-22 15:27 | 51.47696 | -0.63073 | 1901 ft | 150 kts | 90° |
| 2026-04-22 15:27 | 51.47700 | -0.61450 | 1665 ft | 141 kts | 90° |
| 2026-04-22 15:27 | 51.47705 | -0.59944 | 1454 ft | 130 kts | 89° |
| 2026-04-22 15:28 | 51.47723 | -0.58539 | 1324 ft | 122 kts | 87° |
| 2026-04-22 15:28 | 51.47736 | -0.57229 | 1156 ft | 115 kts | 89° |
| 2026-04-22 15:28 | 51.47730 | -0.55974 | 1007 ft | 113 kts | 90° |
| 2026-04-22 15:28 | 51.47731 | -0.54716 | 854 ft | 112 kts | 90° |
| 2026-04-22 15:29 | 51.47746 | -0.53469 | 759 ft | 112 kts | 88° |
| 2026-04-22 15:29 | 51.47741 | -0.52218 | 614 ft | 115 kts | 89° |
| 2026-04-22 15:29 | 51.47751 | -0.50927 | 439 ft | 115 kts | 90° |
| 2026-04-22 15:30 | 51.47756 | -0.48390 | 108 ft | 107 kts | 89° |
| 2026-04-22 15:30 | 51.47755 | -0.47353 | 95 ft | 66 kts | 91° |
| 2026-04-22 15:30 | 51.47756 | -0.46860 | 98 ft | 36 kts | 90° |
| 2026-04-22 15:30 | 51.47756 | -0.46499 | 99 ft | 29 kts | 90° |
| 2026-04-22 15:31 | 51.47746 | -0.46250 | 94 ft | 17 kts | 110° |
| 2026-04-22 15:31 | 51.47669 | -0.46117 | 97 ft | 16 kts | 141° |
| 2026-04-22 15:31 | 51.47579 | -0.46077 | 96 ft | 14 kts | 198° |
| 2026-04-22 15:31 | 51.47520 | -0.46183 | 96 ft | 15 kts | 259° |
| 2026-04-22 15:32 | 51.47514 | -0.46371 | 96 ft | 19 kts | 270° |
| 2026-04-22 15:32 | 51.47514 | -0.46593 | 96 ft | 20 kts | 270° |
| 2026-04-22 15:32 | 51.47472 | -0.46750 | 95 ft | 14 kts | 197° |
| 2026-04-22 15:32 | 51.47366 | -0.46732 | 93 ft | 16 kts | 175° |
| 2026-04-22 15:33 | 51.47262 | -0.46708 | 95 ft | 13 kts | 146° |
| 2026-04-22 15:33 | 51.47239 | -0.46578 | 94 ft | 14 kts | 84° |
| 2026-04-22 15:33 | 51.47231 | -0.46439 | 96 ft | 12 kts | 110° |
| 2026-04-22 15:33 | 51.47174 | -0.46354 | 95 ft | 8 kts | 145° |
| 2026-04-22 15:34 | 51.47126 | -0.46356 | 95 ft | 6 kts | 224° |
| 2026-04-22 15:34 | 51.47099 | -0.46410 | 95 ft | 4 kts | 234° |
| 2026-04-22 15:34 | 51.47095 | -0.46421 | 97 ft | 1 kts | 234° |
| 2026-04-22 15:34 | 51.47094 | -0.46422 | 97 ft | 0 kts | 234° |